Time;durP1;ratioP1;P1;durP2;ratioP2;P2;SDS_P1;SDS_P2;PMS_P1;PMS_P2;Temp;Humidity;BMP_temperature;BMP_pressure;BME280_temperature;BME280_humidity;BME280_pressure;Samples;Min_cycle;Max_cycle;Signal;HPM_P1;HPM_P2
2024/01/30 00:01:29;;;;;;;29.08;17.50;;;3.60;99.90;;;;;;5051612;28;20083;-70
2024/01/30 00:03:54;;;;;;;27.48;16.20;;;3.60;99.90;;;;;;5034475;28;20467;-70
2024/01/30 00:06:23;;;;;;;30.23;16.13;;;3.50;99.90;;;;;;5052264;28;20029;-70
2024/01/30 00:08:49;;;;;;;29.70;18.08;;;3.40;99.90;;;;;;5046356;28;20489;-71
2024/01/30 00:11:16;;;;;;;29.85;16.80;;;3.40;99.90;;;;;;5051775;28;20044;-71
2024/01/30 00:13:42;;;;;;;29.23;16.33;;;3.40;99.90;;;;;;5052175;28;20037;-71
2024/01/30 00:16:09;;;;;;;33.88;17.98;;;3.30;99.90;;;;;;5052508;28;20041;-71
2024/01/30 00:18:34;;;;;;;33.60;16.55;;;3.30;99.90;;;;;;5050907;28;20036;-70
2024/01/30 00:21:00;;;;;;;29.15;17.20;;;3.20;99.90;;;;;;5036149;28;20139;-71
2024/01/30 00:23:26;;;;;;;26.25;15.55;;;3.30;99.90;;;;;;5039390;28;20450;-71
2024/01/30 00:25:51;;;;;;;30.55;16.63;;;3.20;99.90;;;;;;5051357;28;20551;-71
2024/01/30 00:28:17;;;;;;;30.90;15.55;;;3.20;99.90;;;;;;5050550;28;20040;-70
2024/01/30 00:30:42;;;;;;;25.33;15.95;;;3.20;99.90;;;;;;5052142;28;20479;-71
2024/01/30 00:33:09;;;;;;;33.83;17.45;;;3.30;99.90;;;;;;5033708;28;20489;-71
2024/01/30 00:35:34;;;;;;;33.15;18.05;;;3.40;99.90;;;;;;5051879;28;20076;-71
2024/01/30 00:38:00;;;;;;;30.42;16.77;;;3.40;99.90;;;;;;5047528;28;20045;-71
2024/01/30 00:40:26;;;;;;;32.40;17.80;;;3.50;99.90;;;;;;5041013;28;20036;-71
2024/01/30 00:42:52;;;;;;;32.20;17.70;;;3.50;99.90;;;;;;5051492;28;20049;-71
2024/01/30 00:45:17;;;;;;;31.63;18.63;;;3.50;99.90;;;;;;5051447;28;20044;-71
2024/01/30 00:47:44;;;;;;;31.15;18.08;;;3.50;99.90;;;;;;5040761;28;20033;-71
2024/01/30 00:50:09;;;;;;;30.42;17.35;;;3.50;99.90;;;;;;5045146;28;20040;-71
2024/01/30 00:52:35;;;;;;;31.25;17.30;;;3.50;99.90;;;;;;5038255;28;20053;-70
2024/01/30 00:55:02;;;;;;;29.13;17.80;;;3.50;99.90;;;;;;5048192;28;20036;-71
2024/01/30 00:57:28;;;;;;;28.08;17.35;;;3.50;99.90;;;;;;5045139;28;20080;-71
2024/01/30 00:59:53;;;;;;;32.83;17.90;;;3.40;99.90;;;;;;5026351;28;20088;-71
2024/01/30 01:02:19;;;;;;;34.65;18.63;;;3.30;99.90;;;;;;5049080;28;20033;-71
2024/01/30 01:04:45;;;;;;;32.15;17.48;;;3.30;99.90;;;;;;5034162;28;20049;-71
2024/01/30 01:07:11;;;;;;;32.90;18.10;;;3.20;99.90;;;;;;5051050;28;20040;-71
2024/01/30 01:09:36;;;;;;;29.45;17.40;;;3.20;99.90;;;;;;5046293;28;20110;-70
2024/01/30 01:12:03;;;;;;;27.25;17.35;;;3.20;99.90;;;;;;5034630;28;20040;-71
2024/01/30 01:14:29;;;;;;;28.77;17.33;;;3.10;99.90;;;;;;5051002;28;20044;-71
2024/01/30 01:16:54;;;;;;;29.85;16.77;;;3.10;99.90;;;;;;5051172;28;20033;-71
2024/01/30 01:19:20;;;;;;;31.45;17.20;;;3.10;99.90;;;;;;5038200;28;20053;-71
2024/01/30 01:21:46;;;;;;;30.85;16.58;;;3.10;99.90;;;;;;5046426;28;20040;-71
2024/01/30 01:24:11;;;;;;;28.98;17.65;;;3.10;99.90;;;;;;5033578;28;20159;-71
2024/01/30 01:26:37;;;;;;;34.60;18.35;;;3.10;99.90;;;;;;5038953;28;20508;-71
2024/01/30 01:29:09;;;;;;;33.20;18.65;;;3.20;99.90;;;;;;5050244;28;20041;-72
2024/01/30 01:31:39;;;;;;;35.25;18.52;;;3.30;99.90;;;;;;5047139;28;20485;-71
2024/01/30 01:34:05;;;;;;;34.20;18.73;;;3.40;99.90;;;;;;5037908;28;20452;-71
2024/01/30 01:36:31;;;;;;;37.75;19.92;;;3.40;99.90;;;;;;5047047;28;20044;-71
2024/01/30 01:38:57;;;;;;;33.92;19.08;;;3.50;99.90;;;;;;5029818;28;20045;-71
2024/01/30 01:41:22;;;;;;;33.67;18.20;;;3.50;99.90;;;;;;5049665;28;20040;-71
2024/01/30 01:43:48;;;;;;;34.20;18.92;;;3.50;99.90;;;;;;5049439;28;20543;-71
2024/01/30 01:46:14;;;;;;;39.55;17.98;;;3.50;99.90;;;;;;5039412;28;20041;-71
2024/01/30 01:48:40;;;;;;;35.72;19.27;;;3.50;99.90;;;;;;5049104;28;20048;-71
2024/01/30 01:51:06;;;;;;;36.03;18.60;;;3.70;99.90;;;;;;5047253;28;20049;-71
2024/01/30 01:53:32;;;;;;;35.05;18.98;;;3.80;99.90;;;;;;5030033;28;20033;-72
2024/01/30 01:55:58;;;;;;;36.53;21.50;;;3.90;99.90;;;;;;5032192;28;20488;-71
2024/01/30 01:58:28;;;;;;;33.97;18.52;;;3.90;99.90;;;;;;5042036;28;20056;-71
2024/01/30 02:00:54;;;;;;;32.83;18.55;;;3.90;99.90;;;;;;5034315;28;20111;-71
2024/01/30 02:03:23;;;;;;;33.85;18.92;;;4.00;99.90;;;;;;5030144;28;20153;-71
2024/01/30 02:05:51;;;;;;;33.80;18.83;;;4.10;99.90;;;;;;5048978;28;20060;-72
2024/01/30 02:08:17;;;;;;;39.30;18.95;;;4.00;99.90;;;;;;5045822;28;20056;-72
2024/01/30 02:10:42;;;;;;;34.20;18.52;;;4.10;99.90;;;;;;5037301;28;20064;-72
2024/01/30 02:13:08;;;;;;;34.13;19.00;;;4.00;99.90;;;;;;5047644;28;20210;-70
2024/01/30 02:15:33;;;;;;;33.72;17.73;;;4.10;99.90;;;;;;5049771;28;20045;-72
2024/01/30 02:17:59;;;;;;;41.35;18.83;;;4.20;99.90;;;;;;5048615;28;20041;-72
2024/01/30 02:20:26;;;;;;;36.53;19.20;;;4.20;99.90;;;;;;5036099;28;20036;-70
2024/01/30 02:22:55;;;;;;;33.83;17.55;;;4.20;99.90;;;;;;5045804;28;20651;-71
2024/01/30 02:25:33;;;;;;;31.30;17.60;;;4.30;99.90;;;;;;5047991;28;20473;-71
2024/01/30 02:27:59;;;;;;;32.83;18.48;;;4.30;99.90;;;;;;5049969;28;20057;-71
2024/01/30 02:30:24;;;;;;;35.53;18.23;;;4.30;99.90;;;;;;5049790;28;20057;-69
2024/01/30 02:32:50;;;;;;;33.58;18.52;;;4.40;99.90;;;;;;5040834;28;20045;-71
2024/01/30 02:35:16;;;;;;;32.45;18.60;;;4.40;99.90;;;;;;5031434;28;20045;-71
2024/01/30 02:37:41;;;;;;;32.50;18.25;;;4.40;99.90;;;;;;5031197;28;20061;-71
2024/01/30 02:40:07;;;;;;;30.00;17.10;;;4.30;99.90;;;;;;5031513;28;20134;-71
2024/01/30 02:42:33;;;;;;;31.27;17.02;;;4.40;99.90;;;;;;5048005;28;20047;-71
2024/01/30 02:44:58;;;;;;;30.42;17.30;;;4.30;99.90;;;;;;5049764;28;20132;-70
2024/01/30 02:47:24;;;;;;;28.55;16.95;;;4.20;99.90;;;;;;5049803;28;20124;-71
2024/01/30 02:49:49;;;;;;;30.27;16.02;;;4.10;99.90;;;;;;5049350;28;20512;-72
2024/01/30 02:52:15;;;;;;;30.42;15.25;;;4.00;99.90;;;;;;5041293;28;20047;-70
2024/01/30 02:54:41;;;;;;;25.70;14.98;;;4.00;99.90;;;;;;5044820;28;20099;-71
2024/01/30 02:57:06;;;;;;;27.70;15.90;;;3.90;99.90;;;;;;5048279;28;20106;-71
2024/01/30 02:59:35;;;;;;;27.95;15.65;;;3.90;99.90;;;;;;5043312;28;20037;-71
2024/01/30 03:02:01;;;;;;;27.08;14.25;;;3.90;99.90;;;;;;5046757;28;21448;-71
2024/01/30 03:04:27;;;;;;;30.52;16.50;;;3.90;99.90;;;;;;5040369;28;20042;-72
2024/01/30 03:06:53;;;;;;;29.08;16.13;;;4.00;99.90;;;;;;5040192;28;20094;-72
2024/01/30 03:09:18;;;;;;;26.70;15.50;;;4.00;99.90;;;;;;5028592;28;20036;-71
2024/01/30 03:11:44;;;;;;;29.73;16.50;;;4.00;99.90;;;;;;5045851;28;20179;-71
2024/01/30 03:14:12;;;;;;;28.77;16.35;;;4.10;99.90;;;;;;5048352;28;20064;-71
2024/01/30 03:16:38;;;;;;;29.45;16.60;;;4.20;99.90;;;;;;5041135;28;20051;-71
2024/01/30 03:19:07;;;;;;;30.65;17.85;;;4.30;99.90;;;;;;5048021;28;20045;-71
2024/01/30 03:21:33;;;;;;;31.90;18.20;;;4.50;99.90;;;;;;5030957;28;20037;-71
2024/01/30 03:23:59;;;;;;;30.85;17.08;;;4.70;99.90;;;;;;5043235;28;20811;-71
2024/01/30 03:26:25;;;;;;;34.17;18.65;;;4.90;99.90;;;;;;5048394;28;20041;-71
2024/01/30 03:28:51;;;;;;;34.40;17.75;;;5.20;99.90;;;;;;5041413;28;20064;-70
2024/01/30 03:31:16;;;;;;;30.65;16.88;;;5.20;99.90;;;;;;5046349;28;20048;-71
2024/01/30 03:33:42;;;;;;;32.25;18.42;;;5.40;99.90;;;;;;5033033;28;20079;-70
2024/01/30 03:36:09;;;;;;;32.35;17.35;;;5.50;99.90;;;;;;5052878;28;20620;-71
2024/01/30 03:38:35;;;;;;;28.58;17.30;;;5.60;99.90;;;;;;5046041;28;20044;-70
2024/01/30 03:41:00;;;;;;;31.25;16.35;;;5.60;99.90;;;;;;5050200;28;20362;-71
2024/01/30 03:43:26;;;;;;;29.02;16.60;;;5.70;99.90;;;;;;5050987;28;20096;-71
2024/01/30 03:45:52;;;;;;;31.95;16.50;;;5.90;99.90;;;;;;5053739;28;20040;-73
2024/01/30 03:48:18;;;;;;;32.00;17.30;;;6.10;99.90;;;;;;5052532;28;20044;-72
2024/01/30 03:50:44;;;;;;;27.77;16.02;;;6.10;99.90;;;;;;5053077;28;20517;-71
2024/01/30 03:53:09;;;;;;;30.23;17.38;;;6.10;99.90;;;;;;5049389;28;20040;-71
2024/01/30 03:55:35;;;;;;;28.25;15.90;;;6.20;99.90;;;;;;5050823;28;20396;-72
2024/01/30 03:58:01;;;;;;;31.27;15.80;;;6.20;99.90;;;;;;5034461;28;20377;-71
2024/01/30 04:00:26;;;;;;;27.70;15.93;;;6.30;99.90;;;;;;5042381;28;20484;-72
2024/01/30 04:02:53;;;;;;;29.65;15.77;;;6.30;99.90;;;;;;5046748;28;20076;-68
2024/01/30 04:05:18;;;;;;;21.40;14.48;;;6.50;99.90;;;;;;5049477;28;20372;-71
2024/01/30 04:07:44;;;;;;;26.52;14.70;;;6.50;99.90;;;;;;5020610;28;20037;-70
2024/01/30 04:10:10;;;;;;;26.35;14.02;;;6.50;99.90;;;;;;5045788;28;20474;-71
2024/01/30 04:12:36;;;;;;;25.75;15.40;;;6.50;99.90;;;;;;5049725;28;20123;-70
2024/01/30 04:15:02;;;;;;;22.33;14.10;;;6.60;99.90;;;;;;5051189;28;20496;-72
2024/01/30 04:17:28;;;;;;;27.55;13.55;;;6.60;99.90;;;;;;5052302;28;20098;-73
2024/01/30 04:19:54;;;;;;;28.60;14.50;;;6.70;99.90;;;;;;5042939;28;20501;-70
2024/01/30 04:22:20;;;;;;;22.30;13.38;;;6.80;99.90;;;;;;5044404;28;20045;-70
2024/01/30 04:24:46;;;;;;;22.60;13.52;;;6.90;99.90;;;;;;5045115;28;20036;-71
2024/01/30 04:27:14;;;;;;;25.48;12.18;;;6.90;99.90;;;;;;5051845;28;20033;-70
2024/01/30 04:29:40;;;;;;;23.42;12.20;;;7.00;99.90;;;;;;5052352;28;20075;-71
2024/01/30 04:32:06;;;;;;;22.33;12.68;;;7.00;99.90;;;;;;5052542;28;20041;-70
2024/01/30 04:34:31;;;;;;;22.88;12.02;;;6.90;99.90;;;;;;5053245;28;20564;-71
2024/01/30 04:36:57;;;;;;;23.50;12.07;;;7.00;99.90;;;;;;5033091;28;20053;-70
2024/01/30 04:39:23;;;;;;;24.95;12.85;;;7.20;99.90;;;;;;5035167;28;20051;-71
2024/01/30 04:41:48;;;;;;;22.35;12.43;;;7.20;99.90;;;;;;5034727;28;20075;-71
2024/01/30 04:44:14;;;;;;;25.67;12.85;;;7.10;99.90;;;;;;5050662;28;20071;-70
2024/01/30 04:46:40;;;;;;;21.38;11.55;;;7.20;99.90;;;;;;5051917;28;20072;-70
2024/01/30 04:49:07;;;;;;;20.02;12.07;;;7.20;99.90;;;;;;5050890;28;20041;-71
2024/01/30 04:51:33;;;;;;;22.13;11.68;;;7.10;99.90;;;;;;5029568;28;20131;-70
2024/01/30 04:53:59;;;;;;;20.77;12.57;;;7.20;99.90;;;;;;5027355;28;20049;-70
2024/01/30 04:56:24;;;;;;;19.77;12.15;;;7.20;99.90;;;;;;5048542;28;20037;-70
2024/01/30 04:58:50;;;;;;;21.55;12.05;;;7.30;99.90;;;;;;5050680;28;20029;-71
2024/01/30 05:01:18;;;;;;;19.55;11.80;;;7.30;99.90;;;;;;5034593;28;20128;-72
2024/01/30 05:03:44;;;;;;;22.55;12.35;;;7.30;99.90;;;;;;5038130;28;20120;-70
2024/01/30 05:06:10;;;;;;;22.25;13.57;;;7.40;99.90;;;;;;5040488;28;20183;-71
2024/01/30 05:08:38;;;;;;;23.90;12.68;;;7.40;99.90;;;;;;5039818;28;20045;-70
2024/01/30 05:11:05;;;;;;;20.20;12.00;;;7.40;99.90;;;;;;5049843;28;20114;-70
2024/01/30 05:13:31;;;;;;;22.63;11.93;;;7.40;99.90;;;;;;5050328;28;20037;-71
2024/01/30 05:15:57;;;;;;;22.33;11.70;;;7.30;99.90;;;;;;5032857;28;20072;-70
2024/01/30 05:18:23;;;;;;;22.77;12.75;;;7.30;99.90;;;;;;5050458;28;20160;-71
2024/01/30 05:20:50;;;;;;;23.38;12.60;;;7.40;99.90;;;;;;5050603;28;20061;-71
2024/01/30 05:23:16;;;;;;;21.98;11.80;;;7.30;99.90;;;;;;5029593;28;20061;-70
2024/01/30 05:25:41;;;;;;;19.98;12.00;;;7.20;99.90;;;;;;5048557;28;20118;-71
2024/01/30 05:28:07;;;;;;;20.13;11.48;;;7.30;99.90;;;;;;5032561;28;20038;-71
2024/01/30 05:30:33;;;;;;;21.10;12.20;;;7.30;99.90;;;;;;5036791;28;20492;-70
2024/01/30 05:32:58;;;;;;;19.73;12.32;;;7.30;99.90;;;;;;5033118;28;20041;-70
2024/01/30 05:35:24;;;;;;;20.88;13.05;;;7.30;99.90;;;;;;5045498;28;20037;-70
2024/01/30 05:37:50;;;;;;;20.55;12.25;;;7.30;99.90;;;;;;5048196;28;20079;-70
2024/01/30 05:40:16;;;;;;;21.17;11.77;;;7.40;99.90;;;;;;5049517;28;20389;-71
2024/01/30 05:42:42;;;;;;;19.48;12.00;;;7.40;99.90;;;;;;5049731;28;20099;-71
2024/01/30 05:45:08;;;;;;;22.10;12.15;;;7.40;99.90;;;;;;5050231;28;20041;-71
2024/01/30 05:47:37;;;;;;;21.08;11.90;;;7.40;99.90;;;;;;5029041;28;20112;-70
2024/01/30 05:50:03;;;;;;;20.67;12.35;;;7.40;99.90;;;;;;5043812;28;20136;-71
2024/01/30 05:52:28;;;;;;;19.63;11.75;;;7.50;99.90;;;;;;5048693;28;20049;-70
2024/01/30 05:54:54;;;;;;;20.92;12.50;;;7.40;99.90;;;;;;5027864;28;20087;-72
2024/01/30 05:57:20;;;;;;;21.08;12.13;;;7.40;99.90;;;;;;5047658;28;20124;-71
2024/01/30 05:59:47;;;;;;;23.85;12.63;;;7.50;99.90;;;;;;5045092;28;20543;-70
2024/01/30 06:02:13;;;;;;;18.75;11.75;;;7.50;99.90;;;;;;5050240;28;20540;-70
2024/01/30 06:04:39;;;;;;;20.95;12.13;;;7.60;99.90;;;;;;5048136;28;20067;-71
2024/01/30 06:07:06;;;;;;;22.45;12.32;;;7.60;99.90;;;;;;5041274;28;20049;-71
2024/01/30 06:09:32;;;;;;;23.55;12.77;;;7.60;99.90;;;;;;5041487;28;20456;-71
2024/01/30 06:11:57;;;;;;;20.38;11.63;;;7.60;99.90;;;;;;5049068;28;20064;-71
2024/01/30 06:14:23;;;;;;;21.52;12.80;;;7.60;99.90;;;;;;5032728;28;20043;-71
2024/01/30 06:16:49;;;;;;;23.48;12.70;;;7.70;99.90;;;;;;5048995;28;20048;-71
2024/01/30 06:19:15;;;;;;;27.25;12.68;;;7.60;99.90;;;;;;5047156;28;20037;-70
2024/01/30 06:21:41;;;;;;;22.73;12.90;;;7.60;99.90;;;;;;5048037;28;20121;-72
2024/01/30 06:24:06;;;;;;;19.13;11.52;;;7.60;99.90;;;;;;5045213;28;20048;-71
2024/01/30 06:26:32;;;;;;;20.48;12.13;;;7.60;99.90;;;;;;5050205;28;20033;-71
2024/01/30 06:28:57;;;;;;;20.13;11.05;;;7.60;99.90;;;;;;5033643;28;20333;-71
2024/01/30 06:31:23;;;;;;;19.08;11.75;;;7.60;99.90;;;;;;5049329;28;20126;-70
2024/01/30 06:33:50;;;;;;;21.88;12.07;;;7.60;99.90;;;;;;5049012;28;20266;-70
2024/01/30 06:36:15;;;;;;;19.83;12.10;;;7.70;99.90;;;;;;5036551;28;20045;-71
2024/01/30 06:38:41;;;;;;;21.95;11.55;;;7.70;99.90;;;;;;5046148;28;20068;-73
2024/01/30 06:41:07;;;;;;;20.40;11.82;;;7.70;99.90;;;;;;5048787;28;20063;-70
2024/01/30 06:43:32;;;;;;;20.40;12.48;;;7.80;99.90;;;;;;5032950;28;20048;-70
2024/01/30 06:45:59;;;;;;;19.25;11.98;;;7.80;99.90;;;;;;5050113;28;20037;-71
2024/01/30 06:48:25;;;;;;;18.27;11.38;;;7.80;99.90;;;;;;5049542;28;20063;-70
2024/01/30 06:50:53;;;;;;;18.50;12.02;;;7.80;99.90;;;;;;5026418;28;20389;-70
2024/01/30 06:53:19;;;;;;;22.23;12.18;;;7.80;99.90;;;;;;5045796;28;20393;-70
2024/01/30 06:55:45;;;;;;;25.02;12.55;;;7.80;99.90;;;;;;5046358;28;20051;-70
2024/01/30 06:58:10;;;;;;;21.77;11.68;;;7.70;99.90;;;;;;5046518;28;20051;-71
2024/01/30 07:00:36;;;;;;;19.92;11.85;;;7.60;99.90;;;;;;5045627;28;20073;-72
2024/01/30 07:03:02;;;;;;;19.33;12.10;;;7.60;99.90;;;;;;5029168;28;20484;-68
2024/01/30 07:05:27;;;;;;;22.92;11.52;;;7.60;99.90;;;;;;5047729;28;20048;-72
2024/01/30 07:07:53;;;;;;;21.42;12.75;;;7.60;99.90;;;;;;5041144;28;20036;-71
2024/01/30 07:10:19;;;;;;;20.02;12.00;;;7.60;99.90;;;;;;5042096;28;20057;-70
2024/01/30 07:12:44;;;;;;;21.85;12.23;;;7.60;99.90;;;;;;5023179;28;20049;-71
2024/01/30 07:15:10;;;;;;;20.58;11.93;;;7.60;99.90;;;;;;5047281;28;20114;-70
2024/01/30 07:17:36;;;;;;;20.00;12.05;;;7.60;99.90;;;;;;5047593;28;20035;-71
2024/01/30 07:20:05;;;;;;;20.42;12.27;;;7.60;99.90;;;;;;5043769;28;20040;-70
2024/01/30 07:22:31;;;;;;;21.85;12.55;;;7.60;99.90;;;;;;5039417;28;20036;-70
2024/01/30 07:24:57;;;;;;;21.27;11.88;;;7.60;99.90;;;;;;5026483;28;20489;-69
2024/01/30 07:27:22;;;;;;;22.98;12.63;;;7.60;99.90;;;;;;5025451;28;20041;-72
2024/01/30 07:29:48;;;;;;;20.83;12.30;;;7.70;99.90;;;;;;5043738;28;20473;-70
2024/01/30 07:32:14;;;;;;;22.25;12.50;;;7.70;99.90;;;;;;5047984;28;20068;-67
2024/01/30 07:34:40;;;;;;;22.55;12.45;;;7.70;99.90;;;;;;5047128;28;20083;-69
2024/01/30 07:37:08;;;;;;;19.40;12.52;;;7.70;99.90;;;;;;5023511;28;20052;-71
2024/01/30 07:39:34;;;;;;;21.48;12.00;;;7.70;99.90;;;;;;5035675;28;20124;-71
2024/01/30 07:41:59;;;;;;;21.13;12.32;;;7.60;99.90;;;;;;5034264;28;20095;-70
2024/01/30 07:44:25;;;;;;;20.20;12.63;;;7.60;99.90;;;;;;5044046;28;20060;-71
2024/01/30 07:46:51;;;;;;;21.05;12.40;;;7.50;99.90;;;;;;5042034;28;20156;-72
2024/01/30 07:49:17;;;;;;;20.20;12.13;;;7.50;99.90;;;;;;5047840;28;20032;-71
2024/01/30 07:51:43;;;;;;;20.77;13.15;;;7.50;99.90;;;;;;5032260;28;20536;-70
2024/01/30 07:54:14;;;;;;;24.88;12.95;;;7.50;99.90;;;;;;5023352;28;20063;-70
2024/01/30 07:56:40;;;;;;;22.15;13.45;;;7.50;99.90;;;;;;5042666;28;20408;-70
2024/01/30 07:59:09;;;;;;;23.35;11.90;;;7.50;99.90;;;;;;5026590;28;20037;-71
2024/01/30 08:01:35;;;;;;;21.67;12.23;;;7.50;99.90;;;;;;5042899;28;20049;-73
2024/01/30 08:04:00;;;;;;;20.40;11.98;;;7.60;99.90;;;;;;5047692;28;20377;-70
2024/01/30 08:06:26;;;;;;;22.63;12.10;;;7.60;99.90;;;;;;5047431;28;20443;-71
2024/01/30 08:08:53;;;;;;;20.77;11.57;;;7.70;99.90;;;;;;5045546;28;20045;-72
2024/01/30 08:11:20;;;;;;;22.10;11.88;;;7.70;99.90;;;;;;5051574;28;20055;-71
2024/01/30 08:13:46;;;;;;;18.45;11.57;;;7.70;99.90;;;;;;5044280;28;20045;-72
2024/01/30 08:16:11;;;;;;;18.58;11.82;;;7.70;99.90;;;;;;5031222;28;20117;-72
2024/01/30 08:18:37;;;;;;;21.25;12.35;;;7.70;99.90;;;;;;5042701;28;20037;-71
2024/01/30 08:21:05;;;;;;;21.38;12.30;;;7.80;99.90;;;;;;5044630;28;20033;-71
2024/01/30 08:23:31;;;;;;;19.75;11.68;;;7.80;99.90;;;;;;5047667;28;20041;-70
2024/01/30 08:25:56;;;;;;;22.80;12.30;;;7.80;99.90;;;;;;5020952;28;20033;-70
2024/01/30 08:28:22;;;;;;;19.00;11.02;;;7.90;99.90;;;;;;5045781;28;20445;-71
2024/01/30 08:30:47;;;;;;;19.77;11.20;;;7.90;99.90;;;;;;5051369;28;20056;-71
2024/01/30 08:33:13;;;;;;;20.52;12.20;;;7.90;99.90;;;;;;5051505;28;20406;-70
2024/01/30 08:35:38;;;;;;;21.92;11.88;;;8.00;99.90;;;;;;5051602;28;20049;-71
2024/01/30 08:38:04;;;;;;;23.40;11.70;;;8.00;99.90;;;;;;5047500;28;20158;-70
2024/01/30 08:40:30;;;;;;;21.90;11.50;;;8.00;99.90;;;;;;5050871;28;20037;-71
2024/01/30 08:42:56;;;;;;;19.38;10.77;;;8.10;99.90;;;;;;5051871;28;20073;-71
2024/01/30 08:45:21;;;;;;;18.88;11.77;;;8.10;99.90;;;;;;5051714;28;20138;-70
2024/01/30 08:47:47;;;;;;;21.60;11.43;;;8.10;99.90;;;;;;5049459;28;20040;-70
2024/01/30 08:50:13;;;;;;;17.88;11.02;;;8.10;99.90;;;;;;5048506;28;20048;-70
2024/01/30 08:52:38;;;;;;;19.40;12.00;;;8.20;99.90;;;;;;5050067;28;20041;-70
2024/01/30 08:55:04;;;;;;;19.00;10.98;;;8.20;99.90;;;;;;5047014;28;20043;-70
2024/01/30 08:57:30;;;;;;;18.55;11.57;;;8.20;99.90;;;;;;5049266;28;20460;-70
2024/01/30 08:59:56;;;;;;;21.27;11.82;;;8.20;99.90;;;;;;5048508;28;20041;-69
2024/01/30 09:02:21;;;;;;;19.52;11.57;;;8.30;99.90;;;;;;5050898;28;20530;-71
2024/01/30 09:04:47;;;;;;;20.83;11.15;;;8.30;99.90;;;;;;5050944;28;20483;-70
2024/01/30 09:07:13;;;;;;;20.75;10.85;;;8.30;99.90;;;;;;5050030;28;20060;-69
2024/01/30 09:09:40;;;;;;;20.15;10.52;;;8.40;99.90;;;;;;5039936;28;20044;-73
2024/01/30 09:12:09;;;;;;;19.08;11.18;;;8.40;99.90;;;;;;5050700;28;20072;-71
2024/01/30 09:14:40;;;;;;;17.13;10.38;;;8.50;99.90;;;;;;5049997;28;20440;-71
2024/01/30 09:17:05;;;;;;;16.08;10.25;;;8.40;99.90;;;;;;5045959;28;20556;-70
2024/01/30 09:19:31;;;;;;;18.52;11.05;;;8.40;99.90;;;;;;5045598;28;20075;-70
2024/01/30 09:21:57;;;;;;;22.55;11.68;;;8.50;99.90;;;;;;5050413;28;20033;-71
2024/01/30 09:24:22;;;;;;;20.17;11.52;;;8.50;99.90;;;;;;5043669;28;20786;-69
2024/01/30 09:26:48;;;;;;;19.40;10.57;;;8.50;99.90;;;;;;5050040;28;20029;-72
2024/01/30 09:29:13;;;;;;;19.63;11.88;;;8.50;99.90;;;;;;5049539;28;20037;-71
2024/01/30 09:31:39;;;;;;;18.65;10.90;;;8.50;99.90;;;;;;5047560;28;20096;-71
2024/01/30 09:34:05;;;;;;;18.77;10.90;;;8.60;99.90;;;;;;5047235;28;20455;-70
2024/01/30 09:36:32;;;;;;;22.20;11.23;;;8.70;99.90;;;;;;5050858;28;20422;-70
2024/01/30 09:38:58;;;;;;;19.45;10.75;;;8.70;99.90;;;;;;5033941;28;20071;-70
2024/01/30 09:41:27;;;;;;;20.73;11.50;;;8.80;99.90;;;;;;5050025;28;20049;-71
2024/01/30 09:43:54;;;;;;;22.38;11.30;;;8.80;99.90;;;;;;5048313;28;20051;-73
2024/01/30 09:46:22;;;;;;;21.08;11.15;;;8.90;99.90;;;;;;5048704;28;20033;-71
2024/01/30 09:48:49;;;;;;;20.52;11.07;;;8.90;99.90;;;;;;5047419;28;20045;-71
2024/01/30 09:51:16;;;;;;;17.63;10.60;;;8.90;99.90;;;;;;5033071;28;20351;-71
2024/01/30 09:53:44;;;;;;;20.83;10.25;;;9.00;99.90;;;;;;5031465;28;20076;-71
2024/01/30 09:56:09;;;;;;;17.45;10.88;;;9.00;99.90;;;;;;5045210;28;20078;-72
2024/01/30 09:58:35;;;;;;;20.05;10.45;;;9.00;99.90;;;;;;5049919;28;21837;-71
2024/01/30 10:01:00;;;;;;;19.15;10.50;;;9.00;99.90;;;;;;5050824;28;20040;-71
2024/01/30 10:03:26;;;;;;;18.13;10.38;;;9.10;99.90;;;;;;5049681;28;20124;-72
2024/01/30 10:05:52;;;;;;;16.33;10.25;;;9.10;99.90;;;;;;5047958;28;20041;-70
2024/01/30 10:08:19;;;;;;;17.55;10.23;;;9.20;99.90;;;;;;5048038;28;20538;-72
2024/01/30 10:10:49;;;;;;;17.58;9.98;;;9.30;99.90;;;;;;5048599;28;20049;-71
2024/01/30 10:13:15;;;;;;;19.88;9.75;;;9.50;99.90;;;;;;5031901;28;20604;-71
2024/01/30 10:15:41;;;;;;;18.50;10.35;;;9.60;99.90;;;;;;5040931;28;20072;-72
2024/01/30 10:18:09;;;;;;;18.70;10.57;;;9.60;99.90;;;;;;5031723;28;20107;-70
2024/01/30 10:20:35;;;;;;;18.38;9.57;;;9.60;99.90;;;;;;5049786;28;20148;-70
2024/01/30 10:23:02;;;;;;;17.67;10.07;;;9.60;99.90;;;;;;5038808;28;20860;-71
2024/01/30 10:25:27;;;;;;;16.35;9.48;;;9.70;99.90;;;;;;5026790;28;20158;-70
2024/01/30 10:27:55;;;;;;;18.05;10.20;;;9.70;99.90;;;;;;5049855;28;20469;-71
2024/01/30 10:30:24;;;;;;;19.98;10.63;;;9.70;99.90;;;;;;5048616;28;20083;-70
2024/01/30 10:32:50;;;;;;;15.85;10.05;;;9.80;99.90;;;;;;5049650;28;20097;-72
2024/01/30 10:35:15;;;;;;;18.05;10.48;;;9.90;99.90;;;;;;5042888;28;20048;-71
2024/01/30 10:37:43;;;;;;;17.88;10.35;;;9.90;99.90;;;;;;5048325;28;20377;-73
2024/01/30 10:40:13;;;;;;;16.95;9.90;;;10.00;99.90;;;;;;5043565;28;20106;-70
2024/01/30 10:42:42;;;;;;;18.48;9.98;;;10.00;99.90;;;;;;5035899;28;20405;-71
2024/01/30 10:45:09;;;;;;;16.70;9.90;;;10.10;99.90;;;;;;5047441;28;20377;-71
2024/01/30 10:47:36;;;;;;;16.88;10.13;;;10.10;99.90;;;;;;5036785;28;20178;-72
2024/01/30 10:50:05;;;;;;;21.98;11.00;;;10.20;99.90;;;;;;5036677;28;20129;-72
2024/01/30 10:52:32;;;;;;;17.77;9.63;;;10.20;99.90;;;;;;5042104;28;20056;-71
2024/01/30 10:54:59;;;;;;;16.83;9.45;;;10.30;99.90;;;;;;5020475;28;20048;-71
2024/01/30 10:57:26;;;;;;;15.30;9.52;;;10.30;99.90;;;;;;5050015;28;20033;-72
2024/01/30 10:59:56;;;;;;;23.13;10.05;;;10.40;99.90;;;;;;5040695;28;20507;-72
2024/01/30 11:02:23;;;;;;;18.77;9.90;;;10.30;99.90;;;;;;5014944;28;20382;-73
2024/01/30 11:04:50;;;;;;;15.82;9.85;;;10.30;99.90;;;;;;5029643;28;20053;-71
2024/01/30 11:07:26;;;;;;;23.33;11.95;;;10.40;99.90;;;;;;5034920;28;20037;-70
2024/01/30 11:09:53;;;;;;;18.13;9.95;;;10.40;99.90;;;;;;5027031;28;20046;-71
2024/01/30 11:12:25;;;;;;;16.63;9.55;;;10.40;99.90;;;;;;5030367;28;20033;-70
2024/01/30 11:15:12;;;;;;;18.90;10.73;;;10.40;99.90;;;;;;5033623;28;20060;-71
2024/01/30 11:17:56;;;;;;;18.38;10.27;;;10.30;99.90;;;;;;5040083;28;20370;-70
2024/01/30 11:20:27;;;;;;;18.60;10.65;;;10.40;99.90;;;;;;5033064;28;20409;-70
2024/01/30 11:22:55;;;;;;;17.80;9.80;;;10.40;99.90;;;;;;5027247;28;20063;-70
2024/01/30 11:25:22;;;;;;;17.50;9.93;;;10.40;99.90;;;;;;5026148;28;20044;-72
2024/01/30 11:27:50;;;;;;;19.13;9.65;;;10.40;99.90;;;;;;5045509;28;20374;-71
2024/01/30 11:30:25;;;;;;;17.33;10.02;;;10.50;99.90;;;;;;5038212;28;20061;-71
2024/01/30 11:33:06;;;;;;;16.73;9.07;;;10.50;99.90;;;;;;5030377;28;20049;-71
2024/01/30 11:35:37;;;;;;;19.17;10.10;;;10.50;99.90;;;;;;5041394;28;20047;-71
2024/01/30 11:38:04;;;;;;;18.27;9.98;;;10.50;99.90;;;;;;5027552;28;20045;-71
2024/01/30 11:40:31;;;;;;;15.63;9.52;;;10.50;99.90;;;;;;5040005;28;20048;-71
2024/01/30 11:42:58;;;;;;;17.95;9.63;;;10.50;99.90;;;;;;5037279;28;20037;-72
2024/01/30 11:45:24;;;;;;;19.77;10.20;;;10.50;99.90;;;;;;5035201;28;20076;-72
2024/01/30 11:47:50;;;;;;;15.65;9.73;;;10.40;99.90;;;;;;5047200;28;20473;-72
2024/01/30 11:50:16;;;;;;;24.80;11.15;;;10.40;99.90;;;;;;5047453;28;20053;-72
2024/01/30 11:52:42;;;;;;;18.30;11.07;;;10.40;99.90;;;;;;5052122;28;20523;-69
2024/01/30 11:55:09;;;;;;;22.00;11.30;;;10.40;99.90;;;;;;5046578;28;20084;-70
2024/01/30 11:57:36;;;;;;;20.80;10.50;;;10.40;99.90;;;;;;5047126;28;20083;-71
2024/01/30 12:00:12;;;;;;;20.13;10.82;;;10.50;99.90;;;;;;5037642;28;20057;-71
2024/01/30 12:02:38;;;;;;;21.10;11.35;;;10.50;99.90;;;;;;5053268;28;20072;-71
2024/01/30 12:05:07;;;;;;;17.23;11.10;;;10.60;99.90;;;;;;5048924;28;20049;-71
2024/01/30 12:07:33;;;;;;;17.45;10.35;;;10.60;99.90;;;;;;5043779;28;20117;-70
2024/01/30 12:09:59;;;;;;;17.63;10.88;;;10.70;99.90;;;;;;5046644;28;20055;-69
2024/01/30 12:12:26;;;;;;;20.15;10.65;;;10.70;99.90;;;;;;5034948;28;20460;-70
2024/01/30 12:14:52;;;;;;;21.52;11.40;;;10.70;99.90;;;;;;5035853;28;20041;-71
2024/01/30 12:17:28;;;;;;;19.42;11.82;;;10.70;99.90;;;;;;5044212;28;20083;-71
2024/01/30 12:20:05;;;;;;;23.30;12.13;;;10.80;99.90;;;;;;5044975;28;20068;-71
2024/01/30 12:22:31;;;;;;;20.58;11.75;;;10.80;99.90;;;;;;5038791;28;20052;-72
2024/01/30 12:24:57;;;;;;;26.98;11.85;;;10.90;99.90;;;;;;5029276;28;20042;-72
2024/01/30 12:27:23;;;;;;;16.77;10.40;;;10.80;99.90;;;;;;5029842;28;20044;-70
2024/01/30 12:29:56;;;;;;;19.65;11.52;;;10.90;99.90;;;;;;5034775;28;20051;-71
2024/01/30 12:32:23;;;;;;;20.75;11.02;;;10.90;99.90;;;;;;5034695;28;20049;-72